Time;durP1;ratioP1;P1;durP2;ratioP2;P2;SDS_P1;SDS_P2;PMS_P1;PMS_P2;Temp;Humidity;BMP_temperature;BMP_pressure;BME280_temperature;BME280_humidity;BME280_pressure;Samples;Min_cycle;Max_cycle;Signal;HPM_P1;HPM_P2
2021/03/22 00:01:07;;;;;;;19.10;4.60;;;;;;;3.52;75.52;102586.69;5096452;28;20028;-40
2021/03/22 00:03:32;;;;;;;29.05;8.77;;;;;;;3.47;76.10;102583.59;5095585;28;20472;-41
2021/03/22 00:05:57;;;;;;;23.53;8.40;;;;;;;3.47;76.43;102583.59;5095795;28;20106;-41
2021/03/22 00:08:24;;;;;;;23.73;7.17;;;;;;;3.48;76.03;102577.25;5096067;28;20032;-40
2021/03/22 00:10:50;;;;;;;;;;;;;;;3.59;74.52;102589.63;5096423;28;20518;-40
2021/03/22 00:13:18;;;;;;;20.50;4.55;;;;;;;3.49;76.44;102578.09;5095564;28;19919;-41
2021/03/22 00:15:44;;;;;;;15.70;4.60;;;;;;;3.50;76.25;102585.97;5095501;28;20028;-40
2021/03/22 00:18:16;;;;;;;21.20;4.95;;;;;;;3.50;75.91;102577.94;5095297;28;20464;-41
2021/03/22 00:20:41;;;;;;;20.65;5.43;;;;;;;3.47;76.63;102578.25;5095451;28;20044;-40
2021/03/22 00:23:07;;;;;;;20.40;4.60;;;;;;;3.50;76.43;102582.44;5094527;28;20055;-41
2021/03/22 00:25:33;;;;;;;18.90;4.50;;;;;;;3.41;76.43;102576.13;5095948;28;20091;-40
2021/03/22 00:27:59;;;;;;;20.40;4.45;;;;;;;3.38;76.83;102580.91;5095569;28;20472;-42
2021/03/22 00:30:31;;;;;;;13.45;3.92;;;;;;;3.38;76.56;102581.75;5095249;28;20027;-41
2021/03/22 00:32:56;;;;;;;18.20;4.13;;;;;;;3.41;76.89;102584.13;5095822;28;20064;-41
2021/03/22 00:35:22;;;;;;;16.07;4.40;;;;;;;3.36;76.97;102573.84;5095839;28;20024;-41
2021/03/22 00:37:48;;;;;;;22.38;4.38;;;;;;;3.34;77.26;102573.16;5095124;28;20030;-40
2021/03/22 00:40:14;;;;;;;;;;;;;;;3.44;75.67;102575.00;5096169;28;20032;-41
2021/03/22 00:42:40;;;;;;;15.48;4.22;;;;;;;3.26;77.06;102575.69;5094620;28;19912;-41
2021/03/22 00:45:07;;;;;;;19.08;4.43;;;;;;;3.25;77.17;102581.19;5095559;28;20457;-40
2021/03/22 00:47:33;;;;;;;15.13;4.38;;;;;;;3.19;77.59;102571.91;5095215;28;20117;-40
2021/03/22 00:49:58;;;;;;;23.73;4.70;;;;;;;3.24;77.75;102569.66;5095527;28;20037;-40
2021/03/22 00:52:23;;;;;;;22.37;5.40;;;;;;;3.25;78.37;102560.66;5094939;28;20036;-40
2021/03/22 00:54:49;;;;;;;21.80;5.47;;;;;;;3.18;77.46;102556.03;5095501;28;20262;-40
2021/03/22 00:57:14;;;;;;;24.53;4.97;;;;;;;3.19;78.50;102555.03;5094372;28;20028;-40
2021/03/22 00:59:40;;;;;;;20.60;5.03;;;;;;;3.11;78.67;102563.72;5094673;28;20052;-40
2021/03/22 01:02:06;;;;;;;15.90;4.87;;;;;;;3.15;78.45;102554.44;5094434;28;20020;-40
2021/03/22 01:04:32;;;;;;;18.60;4.80;;;;;;;3.05;78.23;102565.13;5094282;28;20035;-40
2021/03/22 01:06:57;;;;;;;16.43;3.87;;;;;;;3.08;78.24;102561.34;5095065;28;20449;-40
2021/03/22 01:09:23;;;;;;;14.73;4.93;;;;;;;2.94;78.24;102561.75;5094920;28;20468;-41
2021/03/22 01:11:48;;;;;;;19.67;4.67;;;;;;;2.90;78.84;102555.84;5094249;28;20031;-40
2021/03/22 01:14:13;;;;;;;12.07;4.83;;;;;;;2.91;78.94;102549.50;5094723;28;20441;-41
2021/03/22 01:16:39;;;;;;;23.00;5.90;;;;;;;2.97;78.91;102545.44;5094226;28;20384;-40
2021/03/22 01:19:17;;;;;;;14.77;4.55;;;;;;;2.98;78.92;102550.66;5095193;28;20035;-40
2021/03/22 01:21:57;;;;;;;20.52;5.68;;;;;;;3.03;79.00;102545.75;5094643;28;20052;-42
2021/03/22 01:24:25;;;;;;;15.50;4.55;;;;;;;2.97;78.92;102540.94;5094327;28;20039;-41
2021/03/22 01:26:56;;;;;;;16.95;4.07;;;;;;;2.98;78.61;102534.63;5094192;28;20482;-40
2021/03/22 01:29:25;;;;;;;17.65;5.13;;;;;;;3.00;79.97;102534.47;5094488;28;20036;-41
2021/03/22 01:31:54;;;;;;;17.58;4.85;;;;;;;3.05;79.39;102533.06;5094123;28;20032;-40
2021/03/22 01:34:19;;;;;;;18.20;4.85;;;;;;;3.03;79.70;102535.06;5093772;28;20057;-41
2021/03/22 01:36:44;;;;;;;22.10;6.00;;;;;;;3.00;79.46;102529.97;5093858;28;20032;-41
2021/03/22 01:39:13;;;;;;;23.10;5.70;;;;;;;2.97;79.41;102534.75;5094327;28;20024;-41
2021/03/22 01:41:57;;;;;;;15.27;5.07;;;;;;;2.94;80.06;102525.19;5093534;28;20507;-40
2021/03/22 01:44:33;;;;;;;18.88;5.20;;;;;;;2.96;80.08;102527.72;5093991;28;20423;-41
2021/03/22 01:47:04;;;;;;;24.98;5.93;;;;;;;2.93;80.28;102525.31;5093954;28;20032;-40
2021/03/22 01:49:38;;;;;;;15.38;5.10;;;;;;;2.95;80.28;102523.38;5093858;28;20031;-40
2021/03/22 01:52:04;;;;;;;16.40;5.18;;;;;;;2.79;80.27;102519.41;5094123;28;20032;-41
2021/03/22 01:54:29;;;;;;;17.80;5.70;;;;;;;2.72;80.47;102525.44;5093781;28;20080;-41
2021/03/22 01:57:41;;;;;;;22.67;5.73;;;;;;;2.71;79.65;102524.59;5094611;28;20106;-41
2021/03/22 02:00:14;;;;;;;22.65;5.35;;;;;;;2.74;81.04;102524.34;5091475;28;20044;-41
2021/03/22 02:02:43;;;;;;;16.20;5.35;;;;;;;2.67;80.93;102501.81;5094137;28;20020;-42
2021/03/22 02:05:11;;;;;;;21.02;5.65;;;;;;;2.72;80.18;102506.75;5093876;28;20032;-41
2021/03/22 02:07:37;;;;;;;25.58;5.60;;;;;;;2.69;80.55;102509.72;5093301;28;20113;-40
2021/03/22 02:10:05;;;;;;;16.13;5.28;;;;;;;2.60;81.25;102510.53;5093964;28;20028;-40
2021/03/22 02:12:30;;;;;;;19.58;5.00;;;;;;;2.54;80.12;102506.59;5094006;28;20337;-40
2021/03/22 02:14:57;;;;;;;18.03;5.17;;;;;;;2.52;80.68;102511.22;5093915;28;20086;-41
2021/03/22 02:17:38;;;;;;;;;;;;;;;2.60;79.22;102511.38;5093859;28;20031;-41
2021/03/22 02:20:35;;;;;;;23.05;6.35;;;;;;;2.56;80.59;102509.97;5093781;28;19999;-41
2021/03/22 02:23:30;;;;;;;20.33;6.50;;;;;;;2.55;80.65;102508.28;5093423;28;20068;-40
2021/03/22 02:26:38;;;;;;;19.10;5.85;;;;;;;2.44;80.58;102500.34;5091846;28;20036;-41
2021/03/22 02:29:12;;;;;;;;;;;;;;;2.57;79.05;102507.13;5051309;28;20082;-41
2021/03/22 02:31:57;;;;;;;20.65;6.32;;;;;;;2.54;81.65;102502.09;5050946;28;19950;-41
2021/03/22 02:34:36;;;;;;;22.55;5.93;;;;;;;2.52;81.49;102503.19;5050868;28;20036;-41
2021/03/22 02:37:40;;;;;;;17.38;6.13;;;;;;;2.50;81.05;102491.81;5051310;28;20029;-40
2021/03/22 02:40:25;;;;;;;23.50;6.18;;;;;;;2.50;81.57;102499.84;4991776;28;20038;-40
2021/03/22 02:42:51;;;;;;;19.30;5.40;;;;;;;2.40;81.32;102507.81;4991951;28;20394;-40
2021/03/22 02:45:24;;;;;;;19.70;6.28;;;;;;;2.40;81.82;102501.63;4992982;28;20038;-40
2021/03/22 02:47:50;;;;;;;24.17;6.38;;;;;;;2.25;81.44;102504.69;4995295;28;20066;-40
2021/03/22 02:50:21;;;;;;;20.58;5.70;;;;;;;2.20;81.25;102498.06;4995305;28;20072;-40
2021/03/22 02:53:01;;;;;;;19.02;5.97;;;;;;;2.27;82.04;102501.88;4995492;28;20052;-40
2021/03/22 02:55:34;;;;;;;21.27;6.18;;;;;;;2.30;82.14;102489.09;4995215;28;20046;-41
2021/03/22 02:58:05;;;;;;;19.77;6.70;;;;;;;2.36;82.47;102492.22;4995466;28;20046;-40
2021/03/22 03:00:38;;;;;;;21.88;6.97;;;;;;;2.34;81.95;102500.34;4995076;28;20027;-40
2021/03/22 03:03:09;;;;;;;20.27;7.43;;;;;;;2.23;82.34;102498.63;4994969;28;20030;-40
2021/03/22 03:05:34;;;;;;;22.38;6.97;;;;;;;2.25;82.15;102512.69;5012952;28;20054;-40
2021/03/22 03:08:13;;;;;;;22.23;7.20;;;;;;;2.30;82.67;102507.78;5014577;28;20091;-41
2021/03/22 03:10:38;;;;;;;26.80;7.30;;;;;;;2.27;83.17;102505.38;5037704;28;20071;-40
2021/03/22 03:13:04;;;;;;;20.17;6.40;;;;;;;2.31;82.92;102501.47;5096714;28;20036;-40
2021/03/22 03:15:29;;;;;;;20.77;7.95;;;;;;;2.31;82.56;102509.47;5097185;28;20032;-41
2021/03/22 03:17:55;;;;;;;19.77;6.93;;;;;;;2.34;82.38;102511.00;5097276;28;20024;-40
2021/03/22 03:20:24;;;;;;;21.70;6.73;;;;;;;2.34;82.96;102513.69;5096715;28;20097;-40
2021/03/22 03:22:49;;;;;;;28.48;7.68;;;;;;;2.38;83.20;102524.94;5097163;28;20024;-40
2021/03/22 03:25:15;;;;;;;20.27;6.97;;;;;;;2.38;82.90;102516.94;5097182;28;20026;-40
2021/03/22 03:27:40;;;;;;;21.77;7.05;;;;;;;2.39;82.51;102511.47;5096452;28;20465;-40
2021/03/22 03:30:09;;;;;;;23.77;7.37;;;;;;;2.37;82.13;102510.75;5096547;28;20103;-40
2021/03/22 03:32:34;;;;;;;22.17;6.28;;;;;;;2.29;82.33;102515.91;5096330;28;20472;-40
2021/03/22 03:34:59;;;;;;;16.77;6.10;;;;;;;2.22;81.89;102518.28;5096717;28;20035;-40
2021/03/22 03:37:25;;;;;;;23.27;7.13;;;;;;;2.16;82.20;102515.34;5096300;28;20028;-40
2021/03/22 03:39:50;;;;;;;19.67;7.60;;;;;;;2.17;82.81;102519.69;5096915;28;20483;-40
2021/03/22 03:42:15;;;;;;;19.27;7.27;;;;;;;2.14;83.12;102518.13;5096475;28;20028;-40
2021/03/22 03:44:41;;;;;;;20.37;6.43;;;;;;;2.18;83.50;102527.53;5096304;28;20483;-40
2021/03/22 03:47:07;;;;;;;24.87;8.00;;;;;;;2.16;82.54;102526.84;5096357;28;20028;-40
2021/03/22 03:49:33;;;;;;;18.95;7.05;;;;;;;2.17;83.26;102530.38;5096103;28;20024;-41
2021/03/22 03:51:58;;;;;;;25.95;7.35;;;;;;;2.21;82.90;102521.09;5096371;28;20043;-40
2021/03/22 03:54:24;;;;;;;25.43;7.57;;;;;;;2.21;82.78;102516.63;5096071;28;20441;-40
2021/03/22 03:56:50;;;;;;;19.47;7.60;;;;;;;2.17;82.55;102530.38;5094976;28;20024;-40
2021/03/22 03:59:15;;;;;;;26.50;7.07;;;;;;;2.24;82.91;102534.16;5096858;28;20406;-40
2021/03/22 04:01:40;;;;;;;24.60;8.17;;;;;;;2.21;83.04;102537.97;5095836;28;20028;-41
2021/03/22 04:04:06;;;;;;;24.13;7.27;;;;;;;2.28;83.67;102532.91;5095942;28;20039;-40
2021/03/22 04:06:33;;;;;;;18.97;7.50;;;;;;;2.35;83.64;102525.25;5095733;28;20036;-40
2021/03/22 04:09:03;;;;;;;23.30;7.57;;;;;;;2.35;83.63;102525.25;5096634;28;20024;-40
2021/03/22 04:11:32;;;;;;;16.10;7.50;;;;;;;2.43;83.44;102526.22;5095786;28;20027;-41
2021/03/22 04:13:58;;;;;;;15.65;6.38;;;;;;;2.43;83.40;102526.22;5095360;28;20020;-40
2021/03/22 04:16:25;;;;;;;28.17;7.90;;;;;;;2.40;84.11;102541.69;5096483;28;20036;-41
2021/03/22 04:18:52;;;;;;;22.58;7.15;;;;;;;2.44;83.38;102549.28;5095554;28;20270;-41
2021/03/22 04:21:20;;;;;;;26.38;7.80;;;;;;;2.50;83.61;102547.91;5096162;28;20040;-41
2021/03/22 04:23:47;;;;;;;19.90;7.68;;;;;;;2.52;83.51;102529.91;5096012;28;20028;-40
2021/03/22 04:26:13;;;;;;;19.95;7.70;;;;;;;2.53;84.42;102539.59;5095121;28;20148;-40
2021/03/22 04:28:40;;;;;;;20.85;7.35;;;;;;;2.63;84.28;102542.28;5095195;28;20386;-40
2021/03/22 04:31:06;;;;;;;19.75;6.63;;;;;;;2.71;84.26;102550.47;5095112;28;20028;-40
2021/03/22 04:33:33;;;;;;;17.98;7.53;;;;;;;2.73;84.44;102549.38;5095002;28;20049;-41
2021/03/22 04:35:58;;;;;;;24.27;8.80;;;;;;;2.72;83.76;102541.47;5094922;28;20028;-40
2021/03/22 04:38:24;;;;;;;26.38;8.35;;;;;;;2.72;84.35;102541.47;5095168;28;20111;-40
2021/03/22 04:40:49;;;;;;;28.97;9.00;;;;;;;2.72;84.66;102538.78;5095470;28;20039;-41
2021/03/22 04:43:15;;;;;;;21.20;8.40;;;;;;;2.69;83.88;102542.59;5094756;28;20070;-40
2021/03/22 04:45:41;;;;;;;20.83;7.78;;;;;;;2.82;84.97;102545.00;5095240;28;20532;-40
2021/03/22 04:48:07;;;;;;;19.95;8.50;;;;;;;2.86;84.35;102537.56;5095263;28;20059;-40
2021/03/22 04:50:32;;;;;;;24.75;8.32;;;;;;;2.84;83.91;102541.22;5095744;28;20380;-40
2021/03/22 04:52:57;;;;;;;28.00;8.63;;;;;;;2.92;84.71;102534.31;5094827;28;20024;-40
2021/03/22 04:55:25;;;;;;;24.77;8.10;;;;;;;2.88;84.12;102543.59;5095190;28;20034;-41
2021/03/22 04:57:51;;;;;;;22.83;9.02;;;;;;;2.89;85.16;102540.81;5094773;28;20031;-40
2021/03/22 05:00:28;;;;;;;23.20;8.68;;;;;;;2.89;84.90;102545.31;5095023;28;20032;-40
2021/03/22 05:02:57;;;;;;;18.98;7.30;;;;;;;2.90;84.88;102539.81;5094969;28;20416;-40
2021/03/22 05:05:24;;;;;;;23.48;9.75;;;;;;;2.88;85.33;102543.59;5095563;28;20059;-40
2021/03/22 05:07:49;;;;;;;21.75;7.38;;;;;;;2.96;85.38;102549.09;5094491;28;20374;-40
2021/03/22 05:10:23;;;;;;;18.98;8.27;;;;;;;2.98;85.31;102542.66;5094329;28;20028;-40
2021/03/22 05:12:48;;;;;;;28.45;10.20;;;;;;;2.91;85.41;102544.16;5094741;28;20478;-40
2021/03/22 05:15:14;;;;;;;27.40;9.37;;;;;;;2.96;85.45;102547.25;5094641;28;20054;-41
2021/03/22 05:17:39;;;;;;;28.00;9.25;;;;;;;2.98;86.02;102539.13;5094075;28;20028;-41
2021/03/22 05:20:09;;;;;;;17.73;7.97;;;;;;;2.98;85.76;102550.66;5095259;28;20063;-41
2021/03/22 05:22:34;;;;;;;31.75;9.90;;;;;;;2.97;85.71;102546.28;5093933;28;20040;-41
2021/03/22 05:24:59;;;;;;;23.00;9.13;;;;;;;2.94;85.12;102546.56;5094340;28;20578;-41
2021/03/22 05:27:25;;;;;;;23.47;9.07;;;;;;;2.97;85.51;102548.94;5094189;28;20020;-41
2021/03/22 05:29:50;;;;;;;19.53;8.80;;;;;;;3.00;85.78;102550.50;5094747;28;20035;-43
2021/03/22 05:32:28;;;;;;;27.10;10.33;;;;;;;3.00;85.66;102561.19;5093841;28;20043;-41
2021/03/22 05:34:53;;;;;;;25.27;8.35;;;;;;;3.07;86.16;102571.22;5094938;28;20024;-42
2021/03/22 05:37:18;;;;;;;20.50;8.83;;;;;;;3.08;86.32;102569.38;5094327;28;20020;-41
2021/03/22 05:39:44;;;;;;;26.57;8.90;;;;;;;3.10;86.43;102556.69;5093379;28;20040;-41
2021/03/22 05:42:12;;;;;;;26.10;9.13;;;;;;;3.06;86.04;102561.47;5094206;28;20040;-42
2021/03/22 05:44:46;;;;;;;27.48;9.18;;;;;;;3.12;86.03;102562.75;5094461;28;20024;-41
2021/03/22 05:47:24;;;;;;;24.77;9.68;;;;;;;3.14;86.00;102560.78;5094184;28;20028;-41
2021/03/22 05:50:03;;;;;;;28.63;9.70;;;;;;;3.17;85.91;102565.84;5093882;28;20030;-41
2021/03/22 05:52:29;;;;;;;25.38;8.95;;;;;;;3.17;86.39;102563.16;5093855;28;20035;-41
2021/03/22 05:55:10;;;;;;;21.30;8.97;;;;;;;3.23;86.24;102559.94;5094047;28;20055;-41
2021/03/22 05:57:43;;;;;;;25.42;9.48;;;;;;;3.19;85.83;102558.53;5093673;28;20031;-41
2021/03/22 06:00:42;;;;;;;26.58;9.48;;;;;;;3.26;85.60;102562.31;5094541;28;20031;-41
2021/03/22 06:03:22;;;;;;;29.00;9.75;;;;;;;3.23;86.16;102569.81;5094433;28;20073;-41
2021/03/22 06:05:50;;;;;;;26.58;10.18;;;;;;;3.23;85.56;102567.97;5093878;28;20032;-41
2021/03/22 06:08:39;;;;;;;30.20;9.82;;;;;;;3.26;85.68;102567.66;5093580;28;20024;-41
2021/03/22 06:11:34;;;;;;;28.70;9.77;;;;;;;3.29;85.49;102571.91;5093319;28;20361;-41
2021/03/22 06:14:46;;;;;;;27.27;9.55;;;;;;;3.27;85.06;102573.84;5094162;28;20032;-41
2021/03/22 06:17:19;;;;;;;20.15;8.32;;;;;;;3.30;85.62;102569.09;5051312;28;20037;-41
2021/03/22 06:19:55;;;;;;;31.25;10.30;;;;;;;3.22;86.47;102562.75;5050856;28;20076;-41
2021/03/22 06:22:29;;;;;;;22.27;8.93;;;;;;;3.28;86.24;102570.22;5051299;28;20057;-41
2021/03/22 06:24:56;;;;;;;26.98;10.93;;;;;;;3.42;86.83;102572.47;5051177;28;20039;-41
2021/03/22 06:27:22;;;;;;;23.23;9.18;;;;;;;3.48;86.16;102571.91;5051619;28;20045;-41
2021/03/22 06:29:49;;;;;;;31.17;9.68;;;;;;;3.50;85.78;102574.41;5050940;28;20466;-41
2021/03/22 06:32:26;;;;;;;28.92;11.27;;;;;;;3.49;85.67;102570.91;5050830;28;20044;-42
2021/03/22 06:34:57;;;;;;;22.08;8.82;;;;;;;3.58;85.59;102567.38;5051368;28;20406;-41
2021/03/22 06:37:30;;;;;;;23.63;9.52;;;;;;;3.63;85.81;102566.09;5051062;28;20041;-41
2021/03/22 06:40:15;;;;;;;21.88;9.00;;;;;;;3.68;85.59;102571.88;5051574;28;20451;-41
2021/03/22 06:42:43;;;;;;;25.55;10.82;;;;;;;3.70;85.23;102585.94;5051003;28;20033;-41
2021/03/22 06:45:32;;;;;;;24.02;9.18;;;;;;;3.75;85.91;102581.84;5050751;28;20213;-41
2021/03/22 06:48:11;;;;;;;20.90;9.43;;;;;;;3.77;85.57;102585.22;5050753;28;20041;-41
2021/03/22 06:50:37;;;;;;;28.58;10.15;;;;;;;3.80;86.09;102576.06;5050733;28;20071;-41
2021/03/22 06:53:02;;;;;;;25.07;9.97;;;;;;;3.86;85.77;102579.03;5081883;28;20044;-41
2021/03/22 06:55:40;;;;;;;26.93;9.93;;;;;;;3.90;85.69;102576.03;5093618;28;20063;-41
2021/03/22 06:58:06;;;;;;;24.85;9.30;;;;;;;3.93;85.80;102579.28;5093377;28;20024;-41
2021/03/22 07:00:36;;;;;;;25.88;9.50;;;;;;;3.99;85.92;102576.00;5093041;28;20441;-41
2021/03/22 07:03:03;;;;;;;27.10;8.77;;;;;;;4.05;86.30;102582.59;5092785;28;20017;-41
2021/03/22 07:05:42;;;;;;;24.08;10.98;;;;;;;4.08;86.17;102583.19;5093170;28;20097;-41
2021/03/22 07:08:17;;;;;;;30.73;9.80;;;;;;;4.11;86.90;102584.72;5093382;28;20517;-42
2021/03/22 07:10:43;;;;;;;32.85;11.00;;;;;;;4.16;86.37;102587.81;5093188;28;20047;-42
2021/03/22 07:13:22;;;;;;;31.63;10.10;;;;;;;4.22;86.31;102587.22;5093113;28;20032;-42
2021/03/22 07:15:52;;;;;;;37.10;9.75;;;;;;;4.28;86.33;102586.63;5093269;28;20028;-41
2021/03/22 07:18:31;;;;;;;28.80;9.48;;;;;;;4.35;86.32;102585.06;5092904;28;20035;-40
2021/03/22 07:20:59;;;;;;;33.63;10.07;;;;;;;4.39;85.75;102589.13;5093823;28;20048;-41
2021/03/22 07:23:42;;;;;;;22.63;7.63;;;;;;;4.47;85.81;102588.38;5092833;28;20028;-40
2021/03/22 07:26:39;;;;;;;30.73;11.63;;;;;;;4.53;85.98;102589.63;5092707;28;20103;-41
2021/03/22 07:29:23;;;;;;;30.67;7.65;;;;;;;4.61;85.51;102587.03;5093263;28;20016;-40
2021/03/22 07:32:44;;;;;;;18.25;8.15;;;;;;;4.66;85.35;102584.75;5095315;28;20456;-41
2021/03/22 07:35:24;;;;;;;22.95;7.97;;;;;;;4.72;85.25;102589.50;5054469;28;20033;-41
2021/03/22 07:38:20;;;;;;;23.15;7.35;;;;;;;4.75;84.83;102583.88;5054121;28;20418;-41
2021/03/22 07:41:01;;;;;;;23.08;7.43;;;;;;;4.82;84.78;102581.41;5053890;28;20495;-41
2021/03/22 07:43:45;;;;;;;23.42;7.72;;;;;;;4.87;84.46;102592.53;5053731;28;20033;-41
2021/03/22 07:46:23;;;;;;;21.40;6.70;;;;;;;4.90;84.19;102585.03;5054442;28;20033;-40
2021/03/22 07:48:55;;;;;;;26.05;6.82;;;;;;;4.97;84.43;102589.78;5053925;28;20390;-41
2021/03/22 07:51:56;;;;;;;26.50;6.93;;;;;;;5.00;83.76;102582.28;5053900;28;20037;-41
2021/03/22 07:54:28;;;;;;;21.48;5.75;;;;;;;5.05;83.18;102587.19;5053867;28;20132;-41
2021/03/22 07:57:02;;;;;;;22.10;7.60;;;;;;;5.11;83.88;102594.63;5053509;28;20032;-41
2021/03/22 07:59:51;;;;;;;19.48;6.93;;;;;;;5.15;83.41;102590.66;5053879;28;20090;-40
2021/03/22 08:02:35;;;;;;;20.02;6.70;;;;;;;5.21;83.09;102603.44;5053632;28;20111;-41
2021/03/22 08:05:13;;;;;;;32.58;12.50;;;;;;;5.26;82.68;102594.94;5059460;28;20376;-40
2021/03/22 08:08:02;;;;;;;75.50;38.75;;;;;;;5.30;82.79;102591.78;5096160;28;20461;-41
2021/03/22 08:10:42;;;;;;;30.98;15.30;;;;;;;5.36;82.81;102593.00;5095514;28;20085;-40
2021/03/22 08:13:35;;;;;;;20.02;7.72;;;;;;;5.43;82.86;102591.41;5095780;28;20384;-41
2021/03/22 08:16:15;;;;;;;18.33;6.82;;;;;;;5.50;82.17;102599.69;5095781;28;20016;-41
2021/03/22 08:18:46;;;;;;;16.95;6.63;;;;;;;5.52;81.26;102587.81;5096008;28;20039;-40
2021/03/22 08:21:35;;;;;;;18.35;6.60;;;;;;;5.57;80.97;102590.03;5095657;28;20066;-41
2021/03/22 08:24:25;;;;;;;17.83;5.85;;;;;;;5.74;81.33;102601.72;5095869;28;20036;-41
2021/03/22 08:27:05;;;;;;;15.38;5.78;;;;;;;5.83;80.70;102593.56;5095506;28;20024;-40
2021/03/22 08:29:35;;;;;;;14.93;5.45;;;;;;;5.96;80.03;102593.19;5095750;28;20024;-41
2021/03/22 08:32:16;;;;;;;11.27;4.60;;;;;;;6.06;78.35;102591.25;5095931;28;20076;-41
2021/03/22 08:34:49;;;;;;;9.32;4.28;;;;;;;6.12;77.02;102595.97;5095681;28;20490;-40
2021/03/22 08:37:17;;;;;;;13.43;4.80;;;;;;;6.17;75.80;102593.66;5095299;28;20135;-41
2021/03/22 08:40:10;;;;;;;10.95;4.25;;;;;;;6.25;76.12;102592.03;5094545;28;20480;-40
2021/03/22 08:42:42;;;;;;;10.82;4.00;;;;;;;6.29;73.26;102599.59;5094555;28;20020;-41
2021/03/22 08:45:26;;;;;;;10.68;3.75;;;;;;;6.36;73.94;102600.66;5095407;28;20149;-41
2021/03/22 08:48:04;;;;;;;7.05;3.78;;;;;;;6.32;73.33;102607.34;5095025;28;20431;-40
2021/03/22 08:50:35;;;;;;;6.75;3.08;;;;;;;6.37;71.56;102605.00;5095821;28;20030;-41
2021/03/22 08:53:13;;;;;;;6.30;2.78;;;;;;;6.42;71.62;102607.22;5095787;28;20063;-41
2021/03/22 08:55:39;;;;;;;5.78;2.60;;;;;;;6.44;70.19;102603.38;5095804;28;20032;-41
2021/03/22 08:58:19;;;;;;;7.80;3.40;;;;;;;6.55;71.82;102606.78;5095744;28;20035;-41
2021/03/22 09:00:46;;;;;;;7.05;3.08;;;;;;;6.60;69.86;102610.66;5094860;28;20036;-41
2021/03/22 09:03:18;;;;;;;5.50;2.08;;;;;;;6.62;67.91;102614.03;5094736;28;20059;-41
2021/03/22 09:06:06;;;;;;;4.18;2.20;;;;;;;6.67;69.56;102611.69;5095032;28;20039;-41
2021/03/22 09:08:56;;;;;;;5.93;2.30;;;;;;;6.69;69.05;102616.94;5094736;28;20421;-41
2021/03/22 09:11:28;;;;;;;6.22;2.00;;;;;;;6.74;68.53;102616.44;5052243;28;20052;-41
2021/03/22 09:13:56;;;;;;;4.65;2.05;;;;;;;6.82;67.69;102621.81;5052127;28;20049;-41
2021/03/22 09:16:21;;;;;;;4.63;1.95;;;;;;;6.89;68.59;102615.66;5052170;28;20037;-41
2021/03/22 09:19:25;;;;;;;4.63;2.30;;;;;;;6.94;69.23;102620.53;5051952;28;20039;-41
2021/03/22 09:22:10;;;;;;;10.63;2.50;;;;;;;6.84;68.78;102626.06;5034739;28;20552;-41
2021/03/22 09:24:39;;;;;;;10.32;4.20;;;;;;;6.80;67.25;102623.84;5051789;28;20056;-41
2021/03/22 09:27:24;;;;;;;6.45;3.03;;;;;;;6.86;68.95;102615.97;5051787;28;20025;-41
2021/03/22 09:29:52;;;;;;;9.65;3.08;;;;;;;6.77;67.00;102619.63;5052395;28;20041;-41
2021/03/22 09:32:28;;;;;;;8.85;2.88;;;;;;;6.78;67.57;102615.91;5051626;28;20039;-40
2021/03/22 09:34:57;;;;;;;5.63;2.38;;;;;;;6.79;67.06;102614.94;5052068;28;20500;-41
2021/03/22 09:37:43;;;;;;;6.75;2.65;;;;;;;6.85;68.54;102619.66;5051566;28;20143;-41
2021/03/22 09:40:29;;;;;;;8.38;2.72;;;;;;;6.91;68.98;102613.63;5051558;28;20037;-41
2021/03/22 09:43:10;;;;;;;8.15;2.85;;;;;;;6.88;68.04;102619.34;5051742;28;20045;-41
2021/03/22 09:45:55;;;;;;;8.15;2.80;;;;;;;6.88;68.02;102613.09;5051480;28;20033;-41
2021/03/22 09:48:25;;;;;;;10.65;2.92;;;;;;;6.86;66.99;102615.97;5071072;28;20036;-41
2021/03/22 09:50:52;;;;;;;8.45;2.75;;;;;;;6.88;67.00;102622.03;5093896;28;20023;-41
2021/03/22 09:53:50;;;;;;;11.02;2.78;;;;;;;6.87;67.23;102628.41;5093871;28;20032;-41
2021/03/22 09:56:30;;;;;;;10.82;3.40;;;;;;;6.81;67.92;102623.69;5093396;28;20030;-40
2021/03/22 09:59:27;;;;;;;9.52;3.40;;;;;;;6.79;68.55;102633.75;5094155;28;20032;-41
2021/03/22 10:01:54;;;;;;;9.18;3.00;;;;;;;6.81;67.95;102629.06;5093798;28;20024;-40
2021/03/22 10:04:21;;;;;;;10.43;3.55;;;;;;;6.85;68.51;102622.34;5093553;28;20028;-41
2021/03/22 10:06:52;;;;;;;;;;;;;;;7.00;68.88;102637.88;5094148;28;20042;-41
2021/03/22 10:09:20;;;;;;;10.27;3.45;;;;;;;6.97;67.86;102639.03;5093990;28;19915;-40
2021/03/22 10:11:47;;;;;;;10.75;3.50;;;;;;;6.97;68.32;102636.31;5093553;28;20042;-41
2021/03/22 10:14:35;;;;;;;10.18;3.53;;;;;;;7.01;68.35;102639.53;5093644;28;20115;-41
2021/03/22 10:17:02;;;;;;;13.45;3.83;;;;;;;6.97;68.47;102633.63;5094052;28;20039;-40
2021/03/22 10:19:30;;;;;;;12.10;3.88;;;;;;;6.91;68.73;102631.59;5094082;28;20548;-40
2021/03/22 10:22:25;;;;;;;9.82;3.67;;;;;;;6.95;68.97;102647.25;5093063;28;20047;-40
2021/03/22 10:25:19;;;;;;;9.93;3.05;;;;;;;6.97;68.49;102642.53;5051033;28;20404;-40
2021/03/22 10:27:46;;;;;;;8.02;3.33;;;;;;;6.99;68.04;102641.56;5049315;28;20107;-40
2021/03/22 10:30:14;;;;;;;;;;;;;;;7.07;69.09;102641.56;5052125;28;20461;-40
2021/03/22 10:32:48;;;;;;;7.18;2.95;;;;;;;7.05;67.80;102640.91;5050852;28;20399;-40
2021/03/22 10:35:19;;;;;;;7.18;3.05;;;;;;;7.01;67.75;102645.75;5051620;28;20045;-40
2021/03/22 10:37:48;;;;;;;7.20;2.75;;;;;;;7.10;67.32;102652.00;5050986;28;20033;-40
2021/03/22 10:40:29;;;;;;;7.55;2.85;;;;;;;7.11;67.35;102640.25;5051072;28;20073;-40
2021/03/22 10:42:57;;;;;;;7.55;2.72;;;;;;;7.14;66.71;102642.59;5050899;28;20040;-40
2021/03/22 10:45:38;;;;;;;5.63;2.58;;;;;;;7.27;67.70;102644.81;5034727;28;20393;-40
2021/03/22 10:48:26;;;;;;;4.32;2.20;;;;;;;7.44;67.30;102641.97;5050899;28;20371;-41
2021/03/22 10:51:05;;;;;;;5.50;2.40;;;;;;;7.57;67.13;102646.06;5051226;28;20128;-40
2021/03/22 10:53:33;;;;;;;5.65;1.90;;;;;;;7.65;65.30;102643.34;5050562;28;20501;-40
2021/03/22 10:56:17;;;;;;;6.05;2.33;;;;;;;7.70;66.36;102640.97;5050689;28;20107;-41
2021/03/22 10:58:43;;;;;;;9.68;2.58;;;;;;;7.76;65.15;102640.34;5051284;28;20028;-41
2021/03/22 11:01:09;;;;;;;8.52;2.95;;;;;;;7.84;65.81;102644.88;5071004;28;20170;-41
2021/03/22 11:03:38;;;;;;;5.60;2.33;;;;;;;7.89;64.48;102640.66;5093120;28;20057;-41
2021/03/22 11:06:14;;;;;;;5.50;2.25;;;;;;;7.88;65.01;102633.59;5094449;28;20032;-41
2021/03/22 11:08:43;;;;;;;;;;;;;;;8.02;66.10;102640.13;5097389;28;20073;-41
2021/03/22 11:11:13;;;;;;;6.35;1.77;;;;;;;7.90;63.48;102631.53;5097256;28;20283;-41
2021/03/22 11:13:41;;;;;;;10.98;5.90;;;;;;;7.92;64.15;102642.19;5096810;28;20028;-41
2021/03/22 11:16:08;;;;;;;4.10;2.05;;;;;;;7.89;64.06;102650.59;5096910;28;20067;-41
2021/03/22 11:18:34;;;;;;;7.82;2.10;;;;;;;7.85;63.42;102652.75;5096770;28;20119;-41
2021/03/22 11:21:01;;;;;;;3.92;2.00;;;;;;;7.82;64.55;102650.44;5096827;28;20024;-41
2021/03/22 11:23:44;;;;;;;5.95;1.92;;;;;;;7.72;64.25;102655.16;5096389;28;20028;-41
2021/03/22 11:26:15;;;;;;;3.67;1.58;;;;;;;7.69;64.08;102655.47;5097078;28;20499;-41
2021/03/22 11:28:40;;;;;;;3.80;1.92;;;;;;;7.68;64.41;102649.25;5095121;28;20137;-41
2021/03/22 11:31:29;;;;;;;7.55;1.92;;;;;;;7.77;65.67;102650.09;5096631;28;20107;-41
2021/03/22 11:34:11;;;;;;;4.15;1.52;;;;;;;7.79;64.62;102658.84;5097122;28;20024;-41
2021/03/22 11:36:40;;;;;;;4.35;1.48;;;;;;;7.76;64.84;102656.50;5096432;28;20024;-41
2021/03/22 11:39:20;;;;;;;3.10;1.30;;;;;;;7.81;65.12;102654.13;5096393;28;20031;-41
2021/03/22 11:41:54;;;;;;;6.45;1.58;;;;;;;7.84;65.69;102659.16;5097185;28;20157;-41
2021/03/22 11:44:32;;;;;;;2.85;1.40;;;;;;;7.81;64.98;102654.13;5096596;28;20023;-41
2021/03/22 11:47:16;;;;;;;2.53;1.40;;;;;;;7.82;65.71;102655.81;5096220;28;20541;-41
2021/03/22 11:49:44;;;;;;;6.13;1.52;;;;;;;7.78;64.77;102654.47;5095887;28;20111;-42
2021/03/22 11:52:20;;;;;;;2.97;1.35;;;;;;;7.78;64.53;102651.78;5096525;28;20479;-42
2021/03/22 11:54:54;;;;;;;5.28;1.67;;;;;;;7.78;64.87;102646.38;5096701;28;20028;-41
2021/03/22 11:57:31;;;;;;;9.25;4.05;;;;;;;7.80;64.58;102656.97;5096066;28;20460;-41